Terminal Aerodrome Forecast
Issued by NWS

Home | Current Version | Previous Version | Text Only | Print | Product List | Glossary On
Versions: 1 2 3 4 5 6 7 8 9 10 11 12 13 14 15 16 17 18 19
000
FTUS43 KEAX 291727
TAFMKC
TAF
KMKC 291727Z 2918/3018 06003KT P6SM SKC
     FM292200 09006KT P6SM VCTS SCT060CB
     FM300300 08004KT P6SM SCT150
     FM301400 16007KT P6SM SCT100=

USA.gov is the U.S. government's official web portal to all federal, state and local government web resources and services.